createdAt,value
2019-01-17T00:03:36.223Z,12.17
2019-01-17T00:08:55.860Z,13.40
2019-01-17T00:14:04.022Z,13.23
2019-01-17T00:19:25.204Z,13.23
2019-01-17T00:24:33.047Z,12.47
2019-01-17T00:29:40.855Z,12.73
2019-01-17T00:34:58.092Z,14.97
2019-01-17T00:40:11.865Z,15.20
2019-01-17T00:45:17.059Z,13.90
2019-01-17T00:50:36.737Z,14.57
2019-01-17T00:55:58.042Z,12.80
2019-01-17T01:01:20.810Z,14.43
2019-01-17T01:06:28.349Z,13.03
2019-01-17T01:11:35.852Z,14.77
2019-01-17T01:16:52.496Z,13.33
2019-01-17T01:22:00.253Z,12.93
2019-01-17T01:27:14.446Z,13.23
2019-01-17T01:32:31.435Z,13.87
2019-01-17T01:37:51.434Z,14.60
2019-01-17T01:43:02.265Z,15.03
2019-01-17T01:48:18.861Z,14.90
2019-01-17T01:53:22.285Z,16.30
2019-01-17T01:58:25.828Z,16.33
2019-01-17T02:03:29.268Z,15.30
2019-01-17T02:08:32.693Z,15.63
2019-01-17T02:13:36.399Z,15.27
2019-01-17T02:18:39.880Z,17.00
2019-01-17T02:23:43.342Z,14.53
2019-01-17T02:28:46.768Z,14.20
2019-01-17T02:33:50.211Z,14.93
2019-01-17T02:38:53.713Z,13.73
2019-01-17T02:43:57.210Z,14.20
2019-01-17T02:49:07.000Z,13.07
2019-01-17T02:54:10.530Z,11.97
2019-01-17T02:59:24.802Z,12.80
2019-01-17T03:04:34.790Z,14.00
2019-01-17T03:09:35.841Z,13.17
2019-01-17T03:14:41.922Z,13.17
2019-01-17T03:19:47.406Z,12.20
2019-01-17T03:24:56.028Z,11.63
2019-01-17T03:30:04.222Z,10.97
2019-01-17T03:35:07.902Z,11.27
2019-01-17T03:40:14.200Z,10.77
2019-01-17T03:45:20.357Z,11.40
2019-01-17T03:50:23.812Z,10.80
2019-01-17T03:55:27.564Z,8.60
2019-01-17T04:00:31.492Z,8.20
2019-01-17T04:05:34.998Z,9.73
2019-01-17T04:10:38.439Z,7.80
2019-01-17T04:15:41.875Z,6.73
2019-01-17T04:20:45.336Z,6.93
2019-01-17T04:25:50.296Z,5.87
2019-01-17T04:30:53.819Z,6.13
2019-01-17T04:35:57.223Z,6.10
2019-01-17T04:41:00.776Z,7.60
2019-01-17T04:46:04.323Z,8.77
2019-01-17T04:51:07.810Z,8.00
2019-01-17T04:56:11.311Z,8.20
2019-01-17T05:01:16.267Z,7.53
2019-01-17T05:06:19.775Z,10.20
2019-01-17T05:11:23.213Z,10.67
2019-01-17T05:16:26.647Z,10.90
2019-01-17T05:21:30.170Z,13.50
2019-01-17T05:26:33.682Z,13.47
2019-01-17T05:31:37.286Z,13.67
2019-01-17T05:36:40.726Z,12.73
2019-01-17T05:41:44.238Z,13.07
2019-01-17T05:46:47.770Z,12.93
2019-01-17T05:51:51.205Z,13.80
2019-01-17T05:56:54.626Z,14.43
2019-01-17T06:01:58.053Z,14.77
2019-01-17T06:07:01.518Z,15.60
2019-01-17T06:12:05.087Z,13.90
2019-01-17T06:17:08.676Z,15.37
2019-01-17T06:22:12.103Z,13.23
2019-01-17T06:27:15.603Z,12.93
2019-01-17T06:32:19.029Z,13.70
2019-01-17T06:37:22.487Z,13.63
2019-01-17T06:42:25.921Z,14.90
2019-01-17T06:47:29.377Z,14.57
2019-01-17T06:52:32.896Z,16.43
2019-01-17T06:57:36.425Z,19.20
2019-01-17T07:02:39.994Z,15.40
2019-01-17T07:07:43.548Z,17.97
2019-01-17T07:12:47.009Z,15.77
2019-01-17T07:17:50.538Z,17.50
2019-01-17T07:22:54.004Z,25.13
2019-01-17T07:27:59.555Z,17.90
2019-01-17T07:33:03.068Z,19.83
2019-01-17T07:38:06.737Z,19.10
2019-01-17T07:43:10.241Z,18.37
2019-01-17T07:48:13.662Z,19.47
2019-01-17T07:53:17.072Z,19.57
2019-01-17T07:58:20.495Z,20.53
2019-01-17T08:03:23.935Z,21.80
2019-01-17T08:08:27.382Z,22.60
2019-01-17T08:13:30.879Z,22.10
2019-01-17T08:18:34.338Z,22.37
2019-01-17T08:23:37.758Z,24.03
2019-01-17T08:28:41.249Z,23.83
2019-01-17T08:33:44.675Z,22.60
2019-01-17T08:38:48.804Z,24.37
2019-01-17T08:43:52.442Z,24.40
2019-01-17T08:48:56.058Z,25.20
2019-01-17T08:53:59.516Z,25.47
2019-01-17T08:59:02.962Z,24.13
2019-01-17T09:04:06.477Z,23.20
2019-01-17T09:09:09.913Z,25.97
2019-01-17T09:14:13.351Z,25.40
2019-01-17T09:19:16.779Z,24.33
2019-01-17T09:24:20.221Z,23.00
2019-01-17T09:29:23.759Z,20.53
2019-01-17T09:34:27.203Z,21.73
2019-01-17T09:39:30.637Z,21.37
2019-01-17T09:44:34.081Z,19.83
2019-01-17T09:49:37.521Z,20.10
2019-01-17T09:54:40.963Z,18.37
2019-01-17T09:59:44.405Z,17.03
2019-01-17T10:04:47.844Z,17.57
2019-01-17T10:09:51.263Z,17.60
2019-01-17T10:14:54.709Z,17.40
2019-01-17T10:20:06.805Z,16.67
2019-01-17T10:25:29.378Z,16.50
2019-01-17T10:30:35.863Z,15.50
2019-01-17T10:36:02.915Z,13.83
2019-01-17T10:41:12.271Z,13.63
2019-01-17T10:46:30.669Z,13.47
2019-01-17T10:51:45.922Z,11.47
2019-01-17T10:57:19.401Z,11.60
2019-01-17T11:02:40.641Z,10.43
2019-01-17T11:07:49.608Z,10.30
2019-01-17T11:13:04.991Z,9.30
2019-01-17T11:18:30.883Z,8.10
2019-01-17T11:23:37.376Z,8.67
2019-01-17T11:28:50.066Z,7.73
2019-01-17T11:34:05.594Z,7.40
2019-01-17T11:39:36.228Z,8.73
2019-01-17T11:44:42.986Z,7.47
2019-01-17T11:50:08.979Z,6.77
2019-01-17T11:55:15.759Z,4.87
2019-01-17T12:00:39.918Z,4.13
2019-01-17T12:05:43.331Z,3.50
2019-01-17T12:11:06.211Z,2.80
2019-01-17T12:16:11.450Z,4.60
2019-01-17T12:21:25.412Z,2.93
2019-01-17T12:26:36.885Z,3.37
2019-01-17T12:31:59.807Z,3.00
2019-01-17T12:37:24.497Z,3.43
2019-01-17T12:42:33.132Z,3.77
2019-01-17T12:47:37.512Z,4.07
2019-01-17T12:52:40.941Z,4.80
2019-01-17T12:57:44.361Z,4.80
2019-01-17T13:02:47.871Z,5.07
2019-01-17T13:07:51.299Z,3.97
2019-01-17T13:12:54.741Z,4.00
2019-01-17T13:17:58.171Z,4.00
2019-01-17T13:23:01.590Z,4.20
2019-01-17T13:28:05.148Z,4.30
2019-01-17T13:33:09.390Z,4.33
2019-01-17T13:38:12.805Z,3.63
2019-01-17T13:43:16.230Z,4.10
2019-01-17T13:48:19.667Z,3.50
2019-01-17T13:53:23.093Z,4.47
2019-01-17T13:58:26.545Z,3.90
2019-01-17T14:03:29.970Z,4.33
2019-01-17T14:08:33.406Z,4.63
2019-01-17T14:13:36.848Z,4.17
2019-01-17T14:18:40.277Z,4.60
2019-01-17T14:23:43.877Z,4.37
2019-01-17T14:28:47.294Z,4.33
2019-01-17T14:33:50.706Z,4.00
2019-01-17T14:38:54.134Z,4.63
2019-01-17T14:43:57.532Z,5.13
2019-01-17T14:49:00.945Z,4.97
2019-01-17T14:54:04.516Z,4.47
2019-01-17T14:59:07.943Z,4.67
2019-01-17T15:04:11.363Z,4.27
2019-01-17T15:09:14.808Z,4.50
2019-01-17T15:14:18.233Z,4.23
2019-01-17T15:19:21.656Z,4.07
2019-01-17T15:24:25.103Z,3.37
2019-01-17T15:29:28.514Z,3.30
2019-01-17T15:34:31.934Z,2.63
2019-01-17T15:39:35.362Z,2.77
2019-01-17T15:44:38.773Z,2.77
2019-01-17T15:49:42.215Z,3.00
2019-01-17T15:54:45.657Z,2.63
2019-01-17T15:59:49.087Z,1.60
2019-01-17T16:04:52.538Z,1.00
2019-01-17T16:09:55.968Z,1.17
2019-01-17T16:14:59.507Z,1.20
2019-01-17T16:20:03.383Z,2.03
2019-01-17T16:25:09.328Z,0.93
2019-01-17T16:30:27.438Z,1.50
2019-01-17T16:35:30.859Z,1.17
2019-01-17T16:40:34.274Z,2.10
2019-01-17T16:45:37.699Z,2.27
2019-01-17T16:50:41.127Z,2.10
2019-01-17T16:55:44.562Z,5.20
2019-01-17T17:00:48.287Z,1.90
2019-01-17T17:05:51.705Z,2.33
2019-01-17T17:10:55.224Z,2.27
2019-01-17T17:15:58.652Z,1.80
2019-01-17T17:21:02.081Z,2.43
2019-01-17T17:26:05.579Z,2.63
2019-01-17T17:31:08.991Z,2.97
2019-01-17T17:36:12.414Z,2.40
2019-01-17T17:41:15.837Z,1.73
2019-01-17T17:46:19.285Z,2.53
2019-01-17T17:51:22.727Z,2.30
2019-01-17T17:56:26.332Z,2.23
2019-01-17T18:01:30.031Z,6.00
2019-01-17T18:06:33.532Z,4.70
2019-01-17T18:11:37.045Z,5.07
2019-01-17T18:16:40.474Z,5.90
2019-01-17T18:21:43.904Z,4.10
2019-01-17T18:26:48.180Z,4.43
2019-01-17T18:31:51.681Z,3.87
2019-01-17T18:36:55.094Z,1.87
2019-01-17T18:41:58.687Z,1.90
2019-01-17T18:47:02.110Z,1.10
2019-01-17T18:52:05.526Z,1.67
2019-01-17T18:57:08.940Z,1.40
2019-01-17T19:02:12.357Z,1.57
2019-01-17T19:07:16.120Z,2.53
2019-01-17T19:12:19.622Z,3.33
2019-01-17T19:17:23.048Z,4.30
2019-01-17T19:22:26.469Z,4.97
2019-01-17T19:27:29.904Z,6.17
2019-01-17T19:32:34.266Z,5.00
2019-01-17T19:37:37.838Z,5.87
2019-01-17T19:42:41.255Z,8.53
2019-01-17T19:47:44.738Z,6.00
2019-01-17T19:52:48.531Z,4.60
2019-01-17T19:57:51.931Z,5.63
2019-01-17T20:02:55.387Z,5.47
2019-01-17T20:07:58.971Z,7.77
2019-01-17T20:13:02.481Z,11.30
2019-01-17T20:18:06.114Z,6.63
2019-01-17T20:23:09.538Z,6.33
2019-01-17T20:28:12.972Z,6.90
2019-01-17T20:33:16.397Z,6.23
2019-01-17T20:38:19.815Z,6.20
2019-01-17T20:43:23.310Z,5.70
2019-01-17T20:48:26.732Z,7.73
2019-01-17T20:53:30.157Z,6.33
2019-01-17T20:58:33.632Z,6.73
2019-01-17T21:03:37.136Z,5.50
2019-01-17T21:08:40.576Z,5.63
2019-01-17T21:13:44.017Z,5.27
2019-01-17T21:18:47.439Z,6.67
2019-01-17T21:23:50.858Z,5.00
2019-01-17T21:28:54.286Z,4.93
2019-01-17T21:33:57.812Z,8.83
2019-01-17T21:39:01.359Z,9.73
2019-01-17T21:44:04.996Z,4.77
2019-01-17T21:49:08.427Z,3.57
2019-01-17T21:54:11.866Z,3.57
2019-01-17T21:59:15.294Z,3.57
2019-01-17T22:04:18.704Z,3.73
2019-01-17T22:09:22.155Z,4.50
2019-01-17T22:14:25.581Z,6.23
2019-01-17T22:19:29.105Z,5.23
2019-01-17T22:24:32.518Z,4.37
2019-01-17T22:29:35.954Z,4.27
2019-01-17T22:34:39.467Z,4.23
2019-01-17T22:39:42.964Z,4.07
2019-01-17T22:44:46.470Z,4.23
2019-01-17T22:49:49.972Z,4.03
2019-01-17T22:54:53.389Z,4.37
2019-01-17T22:59:56.820Z,5.03
2019-01-17T23:05:00.270Z,4.80
2019-01-17T23:10:05.919Z,4.27
2019-01-17T23:15:09.624Z,5.03
2019-01-17T23:20:13.124Z,4.07
2019-01-17T23:25:16.618Z,5.63
2019-01-17T23:30:20.190Z,5.10
2019-01-17T23:35:23.608Z,4.00
2019-01-17T23:40:27.033Z,4.87
2019-01-17T23:45:30.446Z,5.67
2019-01-17T23:50:33.873Z,5.37
2019-01-17T23:55:37.313Z,4.83
